Time;durP1;ratioP1;P1;durP2;ratioP2;P2;SDS_P1;SDS_P2;PMS_P1;PMS_P2;Temp;Humidity;BMP_temperature;BMP_pressure;BME280_temperature;BME280_humidity;BME280_pressure;Samples;Min_cycle;Max_cycle;Signal;HPM_P1;HPM_P2
2022/11/20 08:48:10;;;;;;;;;;;;;;;;;;2391909;61;1857;31
2022/11/20 08:50:43;;;;;;;;;;;;;;;;;;2385532;62;836;-72
2022/11/20 08:53:17;;;;;;;;;;;;;;;;;;2386027;54;1034;-72
2022/11/20 08:55:50;;;;;;;;;;;;;;;;;;2386607;62;1018;-72
2022/11/20 08:58:23;;;;;;;;;;;;;;;;;;2385804;62;1340;-72
2022/11/20 09:00:56;;;;;;;;;;;;;;;;;;2382412;54;1014;-72
2022/11/20 09:03:32;;;;;;;;;;;;;;;;;;2382170;54;872;-72
2022/11/20 09:06:06;;;;;;;;;;;;;;;;;;2382441;62;1931;-72
2022/11/20 09:08:39;;;;;;;;;;;;;;;;;;2382226;62;1194;-72
2022/11/20 09:11:13;;;;;;;;;;;;;;;;;;2382238;62;1019;-72
2022/11/20 09:13:46;;;;;;;;;;;;;;;;;;2382234;54;1048;-72
2022/11/20 09:16:19;;;;;;;;;;;;;;;;;;2382251;62;1130;-72
2022/11/20 09:18:55;;;;;;;;;;;;;;;;;;2382452;62;1206;-72
2022/11/20 09:21:29;;;;;;;;;;;;;;;;;;2377945;62;1528;-71
2022/11/20 09:24:02;;;;;;;;;;;;;;;;;;2382833;62;980;-72
2022/11/20 09:26:35;;;;;;;;;;;;;;;;;;2382165;62;1932;-72
2022/11/20 09:29:08;;;;;;;;;;;;;;;;;;2382190;54;1195;-72
2022/11/20 09:31:41;;;;;;;;;;;;;;;;;;2382385;62;946;-72
2022/11/20 09:34:17;;;;;;;;;;;;;;;;;;2381989;62;1015;-72
2022/11/20 09:36:50;;;;;;;;;;;;;;;;;;2379681;62;1047;-72
2022/11/20 09:39:23;;;;;;;;;;;;;;;;;;2381318;62;1209;-72
2022/11/20 09:42:07;;;;;;;;;;;;;;;;;;2381094;62;1031;-72
2022/11/20 09:44:51;;;;;;;;;;;;;;;;;;2380790;54;1924;-72
2022/11/20 09:47:30;;;;;;;;;;;;;;;;;;2381178;62;1023;-72
2022/11/20 09:50:15;;;;;;;;;;;;;;;;;;2381926;54;1139;-72
2022/11/20 09:52:55;;;;;;;;;;;;;;;;;;2381421;62;1007;-72
2022/11/20 09:55:28;;;;;;;;;;;;;;;;;;2380450;62;1651;-72
2022/11/20 09:58:02;;;;;;;;;;;;;;;;;;2381715;54;898;-72
2022/11/20 10:00:36;;;;;;;;;;;;;;;;;;2380241;62;1033;-72
2022/11/20 10:03:16;;;;;;;;;;;;;;;;;;2378927;62;1048;-72
2022/11/20 10:05:55;;;;;;;;;;;;;;;;;;2382306;62;1983;-72
2022/11/20 10:08:31;;;;;;;;;;;;;;;;;;2382210;62;1207;-71
2022/11/20 10:11:07;;;;;;;;;;;;;;;;;;2382524;54;844;-72
2022/11/20 10:13:42;;;;;;;;;;;;;;;;;;2382480;62;1038;-72
2022/11/20 10:16:22;;;;;;;;;;;;;;;;;;2382328;62;1031;-72
2022/11/20 10:19:06;;;;;;;;;;;;;;;;;;2382270;62;1211;-71
2022/11/20 10:21:49;;;;;;;;;;;;;;;;;;2381111;62;961;-71
2022/11/20 10:24:40;;;;;;;;;;;;;;;;;;2382431;62;1046;-71
2022/11/20 10:27:24;;;;;;;;;;;;;;;;;;2382276;62;1923;-71
2022/11/20 10:30:02;;;;;;;;;;;;;;;;;;2382395;62;1206;-71
2022/11/20 10:32:41;;;;;;;;;;;;;;;;;;2381575;62;1039;-72
2022/11/20 10:35:20;;;;;;;;;;;;;;;;;;2382311;62;1030;-72
2022/11/20 10:37:59;;;;;;;;;;;;;;;;;;2381526;62;1090;-72
2022/11/20 10:40:36;;;;;;;;;;;;;;;;;;2382099;54;1294;-72
2022/11/20 10:43:12;;;;;;;;;;;;;;;;;;2381894;62;1046;-72
2022/11/20 10:45:55;;;;;;;;;;;;;;;;;;2381756;62;1958;-72
2022/11/20 10:48:29;;;;;;;;;;;;;;;;;;2382147;54;1222;-72
2022/11/20 10:51:10;;;;;;;;;;;;;;;;;;2382687;62;1055;-72
2022/11/20 10:53:49;;;;;;;;;;;;;;;;;;2382502;54;1054;-72
2022/11/20 10:56:25;;;;;;;;;;;;;;;;;;2381645;55;1725;-72
2022/11/20 10:59:19;;;;;;;;;;;;;;;;;;2382605;62;1211;-72
2022/11/20 11:01:52;;;;;;;;;;;;;;;;;;2381734;62;1028;-72
2022/11/20 11:04:38;;;;;;;;;;;;;;;;;;2381864;62;967;-71
2022/11/20 11:07:15;;;;;;;;;;;;;;;;;;2383025;62;1936;-72
2022/11/20 11:09:52;;;;;;;;;;;;;;;;;;2383301;62;1211;-72
2022/11/20 11:12:30;;;;;;;;;;;;;;;;;;2382544;62;1014;-72
2022/11/20 11:15:03;;;;;;;;;;;;;;;;;;2383227;62;1020;-72
2022/11/20 11:17:37;;;;;;;;;;;;;;;;;;2383008;54;1055;-72
2022/11/20 11:20:18;;;;;;;;;;;;;;;;;;2382743;62;1128;-72
2022/11/20 11:22:52;;;;;;;;;;;;;;;;;;2383300;62;1043;-72
2022/11/20 11:25:30;;;;;;;;;;;;;;;;;;2383193;62;1920;-71
2022/11/20 11:28:04;;;;;;;;;;;;;;;;;;2382360;62;1249;-72
2022/11/20 11:30:44;;;;;;;;;;;;;;;;;;2379873;62;1027;-72
2022/11/20 11:33:21;;;;;;;;;;;;;;;;;;2382164;62;1014;-71
2022/11/20 11:35:57;;;;;;;;;;;;;;;;;;2381999;54;919;-72
2022/11/20 11:38:32;;;;;;;;;;;;;;;;;;2381439;62;1198;-72
2022/11/20 11:41:10;;;;;;;;;;;;;;;;;;2381449;62;1009;-72
2022/11/20 11:46:42;;;;;;;;;;;;;;;;;;2381219;54;1899;-72
2022/11/20 11:49:18;;;;;;;;;;;;;;;;;;2380785;54;1246;-72
2022/11/20 11:52:01;;;;;;;;;;;;;;;;;;2381696;62;1434;-72
2022/11/20 11:54:37;;;;;;;;;;;;;;;;;;2382931;62;1027;-71
2022/11/20 11:57:19;;;;;;;;;;;;;;;;;;2382844;62;1020;-72
2022/11/20 12:00:00;;;;;;;;;;;;;;;;;;2378926;62;1221;-72
2022/11/20 12:02:38;;;;;;;;;;;;;;;;;;2381087;62;1019;-72
2022/11/20 12:05:19;;;;;;;;;;;;;;;;;;2379664;62;917;-72
2022/11/20 12:07:55;;;;;;;;;;;;;;;;;;2380641;62;1931;-72
2022/11/20 12:10:37;;;;;;;;;;;;;;;;;;2381453;62;1305;-72
2022/11/20 12:13:20;;;;;;;;;;;;;;;;;;2381057;62;1429;-72
2022/11/20 12:15:54;;;;;;;;;;;;;;;;;;2382376;62;825;-72
2022/11/20 12:18:27;;;;;;;;;;;;;;;;;;2382006;62;1206;-72
2022/11/20 12:21:10;;;;;;;;;;;;;;;;;;2381396;62;931;-71
2022/11/20 12:23:50;;;;;;;;;;;;;;;;;;2381719;62;1314;-72
2022/11/20 12:26:30;;;;;;;;;;;;;;;;;;2381658;62;1907;-72
2022/11/20 12:29:12;;;;;;;;;;;;;;;;;;2382350;62;1155;-72
2022/11/20 12:31:58;;;;;;;;;;;;;;;;;;2381629;62;991;-72
2022/11/20 12:34:47;;;;;;;;;;;;;;;;;;2382356;62;966;-72
2022/11/20 12:37:26;;;;;;;;;;;;;;;;;;2382259;54;885;-72
2022/11/20 12:40:01;;;;;;;;;;;;;;;;;;2382204;55;1229;-72
2022/11/20 12:45:44;;;;;;;;;;;;;;;;;;2382067;62;999;-72
2022/11/20 12:48:26;;;;;;;;;;;;;;;;;;2381923;62;1181;-72
2022/11/20 12:51:10;;;;;;;;;;;;;;;;;;2382410;62;1016;-72
2022/11/20 12:53:47;;;;;;;;;;;;;;;;;;2381453;62;916;-72
2022/11/20 12:56:27;;;;;;;;;;;;;;;;;;2381926;62;1052;-72
2022/11/20 12:59:05;;;;;;;;;;;;;;;;;;2382349;62;1210;-72
2022/11/20 13:01:43;;;;;;;;;;;;;;;;;;2381920;62;1008;-72
2022/11/20 13:04:32;;;;;;;;;;;;;;;;;;2381630;62;1098;-72
2022/11/20 13:07:06;;;;;;;;;;;;;;;;;;2382510;62;1912;-72
2022/11/20 13:09:43;;;;;;;;;;;;;;;;;;2382526;62;1226;-72
2022/11/20 13:12:19;;;;;;;;;;;;;;;;;;2381412;62;2324;-72
2022/11/20 13:14:56;;;;;;;;;;;;;;;;;;2382296;62;1051;-71
2022/11/20 13:17:36;;;;;;;;;;;;;;;;;;2382152;62;1030;-72
2022/11/20 13:20:16;;;;;;;;;;;;;;;;;;2382252;54;1132;-72
2022/11/20 13:22:51;;;;;;;;;;;;;;;;;;2382435;54;858;-71
2022/11/20 13:25:26;;;;;;;;;;;;;;;;;;2380731;62;896;-72
2022/11/20 13:28:00;;;;;;;;;;;;;;;;;;2382589;54;1964;-72
2022/11/20 13:30:34;;;;;;;;;;;;;;;;;;2382382;62;849;-72
2022/11/20 13:33:22;;;;;;;;;;;;;;;;;;2381476;62;962;-72
2022/11/20 13:36:01;;;;;;;;;;;;;;;;;;2381515;62;1069;-72
2022/11/20 13:38:43;;;;;;;;;;;;;;;;;;2382020;62;1153;-72
2022/11/20 13:41:33;;;;;;;;;;;;;;;;;;2381019;62;1186;-72
2022/11/20 13:44:15;;;;;;;;;;;;;;;;;;2380762;62;1439;-72
2022/11/20 13:46:49;;;;;;;;;;;;;;;;;;2381800;54;1972;-72
2022/11/20 13:49:26;;;;;;;;;;;;;;;;;;2381409;54;1238;-72
2022/11/20 13:52:06;;;;;;;;;;;;;;;;;;2381746;62;1005;-72
2022/11/20 13:54:51;;;;;;;;;;;;;;;;;;2377456;62;1419;-72
2022/11/20 13:57:42;;;;;;;;;;;;;;;;;;2377948;54;1051;-72
2022/11/20 14:00:18;;;;;;;;;;;;;;;;;;2378169;62;1129;-72
2022/11/20 14:03:00;;;;;;;;;;;;;;;;;;2376859;62;1255;-72
2022/11/20 14:05:37;;;;;;;;;;;;;;;;;;2377121;54;2084;-72
2022/11/20 14:08:16;;;;;;;;;;;;;;;;;;2377374;54;1970;-73
2022/11/20 14:10:49;;;;;;;;;;;;;;;;;;2377616;62;978;-72
2022/11/20 14:13:23;;;;;;;;;;;;;;;;;;2377493;62;1021;-72
2022/11/20 14:15:59;;;;;;;;;;;;;;;;;;2377989;62;897;-71
2022/11/20 14:18:32;;;;;;;;;;;;;;;;;;2377583;62;1230;-72
2022/11/20 14:21:05;;;;;;;;;;;;;;;;;;2376924;62;976;-72
2022/11/20 14:23:41;;;;;;;;;;;;;;;;;;2377976;62;833;-72
2022/11/20 14:26:16;;;;;;;;;;;;;;;;;;2376169;54;1986;-72
2022/11/20 14:28:51;;;;;;;;;;;;;;;;;;2376488;62;1151;-72
2022/11/20 14:31:26;;;;;;;;;;;;;;;;;;2376866;54;1742;-72
2022/11/20 14:34:00;;;;;;;;;;;;;;;;;;2376631;62;898;-72
2022/11/20 14:36:33;;;;;;;;;;;;;;;;;;2377450;62;1035;-72
2022/11/20 14:39:12;;;;;;;;;;;;;;;;;;2377581;62;1133;-72
2022/11/20 14:41:52;;;;;;;;;;;;;;;;;;2377878;62;1034;-71
2022/11/20 14:44:28;;;;;;;;;;;;;;;;;;2377109;54;1240;-71
2022/11/20 14:47:05;;;;;;;;;;;;;;;;;;2377357;62;1914;-72
2022/11/20 21:01:40;;;;;;;;;;;;;;;;;;2384126;54;1437;-72
2022/11/20 21:04:13;;;;;;;;;;;;;;;;;;2384117;54;1054;-72
2022/11/20 21:06:46;;;;;;;;;;;;;;;;;;2381069;62;1899;-72
2022/11/20 21:09:20;;;;;;;;;;;;;;;;;;2385422;62;1038;-71
2022/11/20 21:11:53;;;;;;;;;;;;;;;;;;2385754;62;1205;-72
2022/11/20 21:14:26;;;;;;;;;;;;;;;;;;2385063;62;1026;-71
2022/11/20 21:17:02;;;;;;;;;;;;;;;;;;2384709;54;890;-72
2022/11/20 21:19:35;;;;;;;;;;;;;;;;;;2385045;62;1054;-72
2022/11/20 21:22:06;;;;;;;;;;;;;;;;;;2385323;62;1206;-72
2022/11/20 21:24:39;;;;;;;;;;;;;;;;;;2384622;62;867;-71
2022/11/20 21:27:12;;;;;;;;;;;;;;;;;;2385123;62;1919;-71
2022/11/20 21:29:45;;;;;;;;;;;;;;;;;;2385323;54;1030;-72
2022/11/20 21:32:21;;;;;;;;;;;;;;;;;;2381224;62;1075;-72
2022/11/20 21:34:55;;;;;;;;;;;;;;;;;;2385628;62;983;-71
2022/11/20 21:37:28;;;;;;;;;;;;;;;;;;2385475;62;1020;-71
2022/11/20 21:40:01;;;;;;;;;;;;;;;;;;2385338;62;1138;-71
2022/11/20 21:42:34;;;;;;;;;;;;;;;;;;2385801;62;866;-72
2022/11/20 21:45:08;;;;;;;;;;;;;;;;;;2385013;62;1030;-71
2022/11/20 21:47:44;;;;;;;;;;;;;;;;;;2385135;62;1986;-72
2022/11/20 21:50:17;;;;;;;;;;;;;;;;;;2385207;62;1215;-71
2022/11/20 21:52:50;;;;;;;;;;;;;;;;;;2385740;62;758;-71
2022/11/20 21:55:23;;;;;;;;;;;;;;;;;;2379593;62;1831;-71
2022/11/20 21:57:57;;;;;;;;;;;;;;;;;;2385144;62;950;-71
2022/11/20 22:00:30;;;;;;;;;;;;;;;;;;2385461;54;1203;-71
2022/11/20 22:03:06;;;;;;;;;;;;;;;;;;2385643;62;1032;-72
2022/11/20 22:05:40;;;;;;;;;;;;;;;;;;2386238;62;1023;-71
2022/11/20 22:08:13;;;;;;;;;;;;;;;;;;2385144;62;1903;-71
2022/11/20 22:10:54;;;;;;;;;;;;;;;;;;2381749;54;1255;-71
2022/11/20 22:16:16;;;;;;;;;;;;;;;;;;2385910;62;987;-71
2022/11/20 22:18:53;;;;;;;;;;;;;;;;;;2385519;62;1044;-72
2022/11/20 22:21:27;;;;;;;;;;;;;;;;;;2385860;62;1236;-71
2022/11/20 22:24:01;;;;;;;;;;;;;;;;;;2385988;62;1073;-71
2022/11/20 22:26:36;;;;;;;;;;;;;;;;;;2386121;54;1007;-72
2022/11/20 22:29:10;;;;;;;;;;;;;;;;;;2385153;62;1991;-71
2022/11/20 22:31:43;;;;;;;;;;;;;;;;;;2386050;62;1141;-71
2022/11/20 22:34:19;;;;;;;;;;;;;;;;;;2385382;62;1011;-72
2022/11/20 22:36:52;;;;;;;;;;;;;;;;;;2386367;62;980;-71
2022/11/20 22:39:25;;;;;;;;;;;;;;;;;;2386177;62;1051;-72
2022/11/20 22:41:58;;;;;;;;;;;;;;;;;;2386622;62;1121;-72
2022/11/20 22:44:31;;;;;;;;;;;;;;;;;;2386382;62;1016;-72
2022/11/20 22:47:05;;;;;;;;;;;;;;;;;;2386361;62;934;-72
2022/11/20 22:49:40;;;;;;;;;;;;;;;;;;2386262;62;1015;-72
2022/11/20 22:52:14;;;;;;;;;;;;;;;;;;2386318;62;1348;-72
2022/11/20 22:54:47;;;;;;;;;;;;;;;;;;2386137;62;1044;-72
2022/11/20 22:57:20;;;;;;;;;;;;;;;;;;2385628;54;988;-72
2022/11/20 22:59:53;;;;;;;;;;;;;;;;;;2385692;62;1224;-72
2022/11/20 23:02:26;;;;;;;;;;;;;;;;;;2385902;62;1039;-72
2022/11/20 23:05:02;;;;;;;;;;;;;;;;;;2386126;62;988;-72
2022/11/20 23:07:35;;;;;;;;;;;;;;;;;;2385535;62;1991;-72
2022/11/20 23:10:08;;;;;;;;;;;;;;;;;;2381149;62;1378;-72
2022/11/20 23:12:42;;;;;;;;;;;;;;;;;;2385815;62;1008;-71
2022/11/20 23:15:15;;;;;;;;;;;;;;;;;;2382216;62;1215;-72
2022/11/20 23:17:48;;;;;;;;;;;;;;;;;;2386234;62;976;-72
2022/11/20 23:20:24;;;;;;;;;;;;;;;;;;2386204;62;1224;-72
2022/11/20 23:22:57;;;;;;;;;;;;;;;;;;2386663;62;1030;-72
2022/11/20 23:25:30;;;;;;;;;;;;;;;;;;2386348;62;1002;-71
2022/11/20 23:28:03;;;;;;;;;;;;;;;;;;2385929;54;1926;-72
2022/11/20 23:30:37;;;;;;;;;;;;;;;;;;2386000;62;1233;-72
2022/11/20 23:33:10;;;;;;;;;;;;;;;;;;2386566;62;762;-72
2022/11/20 23:35:48;;;;;;;;;;;;;;;;;;2386337;62;1011;-72
2022/11/20 23:38:21;;;;;;;;;;;;;;;;;;2386290;62;1043;-72
2022/11/20 23:40:54;;;;;;;;;;;;;;;;;;2386420;62;1220;-72
2022/11/20 23:43:27;;;;;;;;;;;;;;;;;;2381712;62;1195;-72
2022/11/20 23:46:01;;;;;;;;;;;;;;;;;;2386265;54;1010;-72
2022/11/20 23:48:35;;;;;;;;;;;;;;;;;;2386111;62;1919;-72
2022/11/20 23:51:11;;;;;;;;;;;;;;;;;;2386408;62;1214;-72
2022/11/20 23:53:44;;;;;;;;;;;;;;;;;;2386607;62;1010;-72
2022/11/20 23:56:17;;;;;;;;;;;;;;;;;;2386045;62;1020;-72
2022/11/20 23:58:50;;;;;;;;;;;;;;;;;;2385858;62;971;-73
